Hlavní strana
METAR-TAF:

METAR-TAF

Letiště :

Čennaj, Indie

Mezinárodní letiště Čennaí

zeměpisná šířka: 13-00N, zeměpisná délka: 080-11E, výška: 10 m

Aktuální stav počasí

Zpráva byla vytvořena před 34 minutami, v 16:00 UTC
Východojihovýchodní vítr 10 kt
Teplota 31°C
Vlhkost vzduchu 75%
Tlak 1008 hPa
Viditelnost: 6000 m
Skoro jasno ve výšce 2000 ft

METAR: VOMM 251600Z 12010KT 6000 FEW020 31/26 Q1008 NOSIG

Čas: 22:04 (16:34 UTC)

Předpověď počasí

Zpráva byla vytvořena před 5 hodinami a 34 minutami, v 11:00 UTC
Předpověď platná od 25 v 12 UTC do 26 v 18 UTC
Východojihovýchodní vítr 10 kt
Viditelnost: 6000 m
Skoro jasno ve výšce 2000 ft
Změna
od 25 v 20 UTC do 25 v 21 UTC
Jižní vítr 5 kt
Změna
od 26 v 07 UTC do 26 v 08 UTC
Východojihovýchodní vítr 10 kt

TAF: VOMM 251100Z 2512/2618 12010KT 6000 FEW020 BECMG 2520/2521 18005KT BECMG 2607/2608 12010KT

Stav a předpovědi počasí z více než 4 000 letišť (zprávy METAR a TAF).

Červené a žluté tečky na mapě představují dostupné meteorologické stanice.

Když kurzor umístíte na tečku, zobrazí se název stanice.

Pak kliknutím zobrazíte stav a předpověď počasí.

Chcete-li změnit mapu, kliknutím na zelené tlačítko se znaménkem +mapu přiblížíte, kliknutím na zelené tlačítko se znaménkem – mapu oddálíte a kliknutím na zelené šipky přejdete na sousední mapy.


METAR-TAF: